createdAt,value
2023-05-03T00:01:29.313Z,11.30
2023-05-03T00:04:15.831Z,11.40
2023-05-03T00:06:44.847Z,11.00
2023-05-03T00:09:28.518Z,10.80
2023-05-03T00:11:58.760Z,11.10
2023-05-03T00:14:42.163Z,11.50
2023-05-03T00:17:10.700Z,12.00
2023-05-03T00:19:56.276Z,12.40
2023-05-03T00:22:24.740Z,12.10
2023-05-03T00:25:09.606Z,11.80
2023-05-03T00:27:39.574Z,12.10
2023-05-03T00:30:23.850Z,12.40
2023-05-03T00:32:52.719Z,12.40
2023-05-03T00:35:36.656Z,12.70
2023-05-03T00:38:05.198Z,12.30
2023-05-03T00:40:55.642Z,11.90
2023-05-03T00:43:25.492Z,12.10
2023-05-03T00:46:17.162Z,12.40
2023-05-03T00:48:46.735Z,12.70
2023-05-03T00:51:31.165Z,12.60
2023-05-03T00:53:59.724Z,11.90
2023-05-03T00:56:50.997Z,11.70
2023-05-03T00:59:23.729Z,12.10
2023-05-03T01:02:07.335Z,12.40
2023-05-03T01:04:37.113Z,12.60
2023-05-03T01:07:30.604Z,12.80
2023-05-03T01:10:06.112Z,12.90
2023-05-03T01:12:45.314Z,12.80
2023-05-03T01:15:43.361Z,12.80
2023-05-03T01:18:15.657Z,12.80
2023-05-03T01:21:01.935Z,12.70
2023-05-03T01:23:37.558Z,12.50
2023-05-03T01:26:22.890Z,12.50
2023-05-03T01:28:53.581Z,12.60
2023-05-03T01:31:45.299Z,12.60
2023-05-03T01:34:23.103Z,12.50
2023-05-03T01:37:10.418Z,12.60
2023-05-03T01:39:43.381Z,12.60
2023-05-03T01:42:28.602Z,12.80
2023-05-03T01:44:58.114Z,12.70
2023-05-03T01:47:41.596Z,12.80
2023-05-03T01:50:10.968Z,12.80
2023-05-03T01:52:54.196Z,12.80
2023-05-03T01:55:22.490Z,12.60
2023-05-03T01:58:07.784Z,12.60
2023-05-03T02:00:36.559Z,12.50
2023-05-03T02:03:22.343Z,12.20
2023-05-03T02:05:50.756Z,12.10
2023-05-03T02:08:36.302Z,12.30
2023-05-03T02:11:04.681Z,12.40
2023-05-03T02:13:50.459Z,12.60
2023-05-03T02:16:20.242Z,12.70
2023-05-03T02:19:04.289Z,12.70
2023-05-03T02:21:42.984Z,12.70
2023-05-03T02:24:26.286Z,12.70
2023-05-03T02:26:56.384Z,12.60
2023-05-03T02:29:43.651Z,12.30
2023-05-03T02:32:13.493Z,12.40
2023-05-03T02:34:57.185Z,12.40
2023-05-03T02:37:26.903Z,12.50
2023-05-03T02:40:11.142Z,12.40
2023-05-03T02:42:40.518Z,12.50
2023-05-03T02:45:26.634Z,12.50
2023-05-03T02:47:55.775Z,12.60
2023-05-03T02:50:40.963Z,12.60
2023-05-03T02:53:09.490Z,12.50
2023-05-03T02:55:53.438Z,12.50
2023-05-03T02:58:22.179Z,12.50
2023-05-03T03:01:07.774Z,12.40
2023-05-03T03:03:36.625Z,12.40
2023-05-03T03:06:20.232Z,12.40
2023-05-03T03:08:49.457Z,12.50
2023-05-03T03:11:33.469Z,12.50
2023-05-03T03:14:03.446Z,12.60
2023-05-03T03:16:48.376Z,12.50
2023-05-03T03:19:16.860Z,12.40
2023-05-03T03:22:00.311Z,12.40
2023-05-03T03:24:28.738Z,12.30
2023-05-03T03:27:12.058Z,12.30
2023-05-03T03:29:41.319Z,12.30
2023-05-03T03:32:30.746Z,12.00
2023-05-03T03:35:01.515Z,11.70
2023-05-03T03:37:47.203Z,11.10
2023-05-03T03:40:16.332Z,10.80
2023-05-03T03:43:00.842Z,10.90
2023-05-03T03:45:30.349Z,10.90
2023-05-03T03:48:16.726Z,10.80
2023-05-03T03:50:45.759Z,10.40
2023-05-03T03:53:30.802Z,9.80
2023-05-03T03:55:59.375Z,10.10
2023-05-03T03:58:42.775Z,10.40
2023-05-03T04:01:13.121Z,10.60
2023-05-03T04:03:58.085Z,10.80
2023-05-03T04:06:27.168Z,10.90
2023-05-03T04:09:12.440Z,10.90
2023-05-03T04:11:42.329Z,11.00
2023-05-03T04:14:25.704Z,11.10
2023-05-03T04:16:56.179Z,11.10
2023-05-03T04:19:41.476Z,11.30
2023-05-03T04:22:10.773Z,11.20
2023-05-03T04:24:54.775Z,11.20
2023-05-03T04:27:23.483Z,11.20
2023-05-03T04:30:08.473Z,11.30
2023-05-03T04:32:37.962Z,11.10
2023-05-03T04:35:28.829Z,11.20
2023-05-03T04:37:59.446Z,11.10
2023-05-03T04:40:46.438Z,10.90
2023-05-03T04:43:16.693Z,11.10
2023-05-03T04:46:03.502Z,11.30
2023-05-03T04:48:32.992Z,11.20
2023-05-03T04:51:18.790Z,11.20
2023-05-03T04:53:48.686Z,11.30
2023-05-03T04:56:36.411Z,11.40
2023-05-03T04:59:13.027Z,11.60
2023-05-03T05:01:56.776Z,11.50
2023-05-03T05:04:26.486Z,11.50
2023-05-03T05:07:11.498Z,11.60
2023-05-03T05:09:39.906Z,11.70
2023-05-03T05:12:23.502Z,11.70
2023-05-03T05:14:51.900Z,11.50
2023-05-03T05:17:36.162Z,11.40
2023-05-03T05:20:12.432Z,11.20
2023-05-03T05:23:02.280Z,11.20
2023-05-03T05:25:30.775Z,11.00
2023-05-03T05:28:15.963Z,11.00
2023-05-03T05:30:45.373Z,11.00
2023-05-03T05:33:29.400Z,11.00
2023-05-03T05:35:59.566Z,11.10
2023-05-03T05:38:45.994Z,11.10
2023-05-03T05:41:14.828Z,11.00
2023-05-03T05:44:01.176Z,11.20
2023-05-03T05:46:32.240Z,11.30
2023-05-03T05:49:16.174Z,11.10
2023-05-03T05:51:45.885Z,11.10
2023-05-03T05:54:30.977Z,11.30
2023-05-03T05:57:00.959Z,11.50
2023-05-03T05:59:45.619Z,11.70
2023-05-03T06:02:18.057Z,11.80
2023-05-03T06:05:05.653Z,11.80
2023-05-03T06:07:36.645Z,11.80
2023-05-03T06:10:22.164Z,11.80
2023-05-03T06:12:53.816Z,11.80
2023-05-03T06:15:42.303Z,11.90
2023-05-03T06:18:10.787Z,11.60
2023-05-03T06:20:54.174Z,11.20
2023-05-03T06:23:25.034Z,11.30
2023-05-03T06:26:11.201Z,11.10
2023-05-03T06:28:41.911Z,10.90
2023-05-03T06:31:26.869Z,11.10
2023-05-03T06:33:58.579Z,11.40
2023-05-03T06:36:43.363Z,11.40
2023-05-03T06:39:11.960Z,11.60
2023-05-03T06:41:56.853Z,11.40
2023-05-03T06:44:35.661Z,11.40
2023-05-03T06:47:20.904Z,11.30
2023-05-03T06:49:49.368Z,11.40
2023-05-03T06:52:32.890Z,11.40
2023-05-03T06:55:01.866Z,11.60
2023-05-03T06:57:47.940Z,11.80
2023-05-03T07:00:17.451Z,12.20
2023-05-03T07:03:01.254Z,12.50
2023-05-03T07:05:30.683Z,12.60
2023-05-03T07:08:14.238Z,12.80
2023-05-03T07:10:42.908Z,12.80
2023-05-03T07:13:27.660Z,13.00
2023-05-03T07:15:56.650Z,13.40
2023-05-03T07:18:40.042Z,13.40
2023-05-03T07:21:09.454Z,13.60
2023-05-03T07:23:53.187Z,13.80
2023-05-03T07:26:21.813Z,13.90
2023-05-03T07:29:06.830Z,14.00
2023-05-03T07:31:38.028Z,14.20
2023-05-03T07:34:21.374Z,14.30
2023-05-03T07:36:50.248Z,14.00
2023-05-03T07:39:33.724Z,14.00
2023-05-03T07:42:03.339Z,14.20
2023-05-03T07:44:48.167Z,14.30
2023-05-03T07:47:16.745Z,14.60
2023-05-03T07:50:00.523Z,14.90
2023-05-03T07:52:29.246Z,15.00
2023-05-03T07:55:12.647Z,15.10
2023-05-03T07:57:41.302Z,14.90
2023-05-03T08:00:26.231Z,15.10
2023-05-03T08:02:54.862Z,15.00
2023-05-03T08:05:38.908Z,15.10
2023-05-03T08:08:07.547Z,15.10
2023-05-03T08:10:53.207Z,15.10
2023-05-03T08:13:22.692Z,15.40
2023-05-03T08:16:08.546Z,15.70
2023-05-03T08:18:37.454Z,15.90
2023-05-03T08:21:22.099Z,16.00
2023-05-03T08:23:50.982Z,16.10
2023-05-03T08:26:35.078Z,16.00
2023-05-03T08:29:03.935Z,16.00
2023-05-03T08:31:48.958Z,16.30
2023-05-03T08:34:17.587Z,16.40
2023-05-03T08:37:01.387Z,16.50
2023-05-03T08:39:31.313Z,16.60
2023-05-03T08:42:14.884Z,16.60
2023-05-03T08:44:49.493Z,16.50
2023-05-03T08:47:38.627Z,16.40
2023-05-03T08:50:08.944Z,16.50
2023-05-03T08:52:52.377Z,16.60
2023-05-03T08:55:21.480Z,16.90
2023-05-03T08:58:10.471Z,16.90
2023-05-03T09:00:39.088Z,16.90
2023-05-03T09:03:25.389Z,16.90
2023-05-03T09:05:55.122Z,17.00
2023-05-03T09:08:44.486Z,17.20
2023-05-03T09:11:22.982Z,17.40
2023-05-03T09:14:11.581Z,17.60
2023-05-03T09:16:41.377Z,17.70
2023-05-03T09:19:26.273Z,17.50
2023-05-03T09:22:08.284Z,17.40
2023-05-03T09:24:55.797Z,17.50
2023-05-03T09:27:24.981Z,17.70
2023-05-03T09:30:20.323Z,17.80
2023-05-03T09:32:49.620Z,17.90
2023-05-03T09:35:34.594Z,18.10
2023-05-03T09:38:03.148Z,17.90
2023-05-03T09:40:49.310Z,18.00
2023-05-03T09:43:19.521Z,18.00
2023-05-03T09:46:10.822Z,18.10
2023-05-03T09:48:39.819Z,18.50
2023-05-03T09:51:26.331Z,18.70
2023-05-03T09:53:57.435Z,18.80
2023-05-03T09:56:40.886Z,18.80
2023-05-03T09:59:11.423Z,19.00
2023-05-03T10:01:59.943Z,19.10
2023-05-03T10:04:29.633Z,19.00
2023-05-03T10:07:18.452Z,19.00
2023-05-03T10:09:48.664Z,18.80
2023-05-03T10:12:34.822Z,18.70
2023-05-03T10:15:07.470Z,18.60
2023-05-03T10:17:53.907Z,18.60
2023-05-03T10:20:30.053Z,18.70
2023-05-03T10:23:15.449Z,19.00
2023-05-03T10:26:14.431Z,19.20
2023-05-03T10:29:01.334Z,19.40
2023-05-03T10:31:47.034Z,19.70
2023-05-03T10:34:33.369Z,19.70
2023-05-03T10:37:04.192Z,19.60
2023-05-03T10:39:48.875Z,19.10
2023-05-03T10:42:17.364Z,19.30
2023-05-03T10:45:03.749Z,19.50
2023-05-03T10:47:34.627Z,19.70
2023-05-03T10:50:28.652Z,19.80
2023-05-03T10:52:59.185Z,20.00
2023-05-03T10:56:02.621Z,20.10
2023-05-03T10:58:32.115Z,20.30
2023-05-03T11:01:17.134Z,20.30
2023-05-03T11:03:51.936Z,20.50
2023-05-03T11:06:36.871Z,20.70
2023-05-03T11:09:07.809Z,20.90
2023-05-03T11:11:52.760Z,20.90
2023-05-03T11:14:21.271Z,20.80
2023-05-03T11:17:04.636Z,20.60
2023-05-03T11:19:33.740Z,20.60
2023-05-03T11:22:17.335Z,20.60
2023-05-03T11:24:47.207Z,20.60
2023-05-03T11:27:33.586Z,20.40
2023-05-03T11:30:02.154Z,20.60
2023-05-03T11:32:45.959Z,20.60
2023-05-03T11:35:17.946Z,20.50
2023-05-03T11:38:01.515Z,20.30
2023-05-03T11:40:29.909Z,20.60
2023-05-03T11:43:14.747Z,20.90
2023-05-03T11:45:45.724Z,21.00
2023-05-03T11:48:32.328Z,21.00
2023-05-03T11:51:01.810Z,21.10
2023-05-03T11:53:48.409Z,20.80
2023-05-03T11:56:18.945Z,21.10
2023-05-03T11:59:04.298Z,21.30
2023-05-03T12:01:32.819Z,21.10
2023-05-03T12:04:16.646Z,21.20
2023-05-03T12:06:52.793Z,21.40
2023-05-03T12:09:39.598Z,21.40
2023-05-03T12:12:13.833Z,21.60
2023-05-03T12:15:03.635Z,21.70
2023-05-03T12:17:38.816Z,21.70
2023-05-03T12:21:26.832Z,21.50
2023-05-03T12:23:15.302Z,21.60
2023-05-03T12:26:01.354Z,21.50
2023-05-03T12:28:30.210Z,21.40
2023-05-03T12:31:17.932Z,20.90
2023-05-03T12:34:03.895Z,21.00
2023-05-03T12:36:53.879Z,21.00
2023-05-03T12:39:24.037Z,21.50
2023-05-03T12:42:13.264Z,21.50
2023-05-03T12:44:47.103Z,21.60
2023-05-03T12:47:36.147Z,21.60
2023-05-03T12:50:06.239Z,21.70
2023-05-03T12:52:52.529Z,21.90
2023-05-03T12:55:24.877Z,22.00
2023-05-03T13:00:48.325Z,22.20
2023-05-03T13:03:43.125Z,22.00
2023-05-03T13:06:14.931Z,22.20
2023-05-03T13:09:02.988Z,22.20
2023-05-03T13:11:34.844Z,22.00
2023-05-03T13:14:18.590Z,22.20
2023-05-03T13:16:49.263Z,22.30
2023-05-03T13:19:34.322Z,22.50
2023-05-03T13:22:02.694Z,22.40
2023-05-03T13:24:48.295Z,22.40
2023-05-03T13:27:18.163Z,22.50
2023-05-03T13:30:05.088Z,22.50
2023-05-03T13:32:34.793Z,22.50
2023-05-03T13:35:22.967Z,22.60
2023-05-03T13:37:51.399Z,22.70
2023-05-03T13:40:34.878Z,22.80
2023-05-03T13:43:05.420Z,22.90
2023-05-03T13:45:48.913Z,22.80
2023-05-03T13:48:18.598Z,22.30
2023-05-03T13:50:49.475Z,22.20
2023-05-03T13:53:17.833Z,22.30
2023-05-03T13:55:46.418Z,22.50
2023-05-03T13:58:15.108Z,22.20
2023-05-03T14:00:43.638Z,22.10
2023-05-03T14:03:13.141Z,22.30
2023-05-03T14:05:41.780Z,22.50
2023-05-03T14:08:12.649Z,22.50
2023-05-03T14:10:41.354Z,22.40
2023-05-03T14:13:10.045Z,22.50
2023-05-03T14:15:40.898Z,22.60
2023-05-03T14:18:10.281Z,22.60
2023-05-03T14:20:38.835Z,22.30
2023-05-03T14:23:07.242Z,22.40
2023-05-03T14:25:37.801Z,22.50
2023-05-03T14:28:06.389Z,22.30
2023-05-03T14:30:34.908Z,22.10
2023-05-03T14:33:04.018Z,22.00
2023-05-03T14:35:32.511Z,22.00
2023-05-03T14:38:01.045Z,21.90
2023-05-03T14:40:29.530Z,21.90
2023-05-03T14:42:59.296Z,21.80
2023-05-03T14:45:27.710Z,21.90
2023-05-03T14:47:56.096Z,22.00
2023-05-03T14:50:26.324Z,22.30
2023-05-03T14:52:54.990Z,22.30
2023-05-03T14:55:23.361Z,22.10
2023-05-03T14:57:52.066Z,22.10
2023-05-03T15:00:22.235Z,22.20
2023-05-03T15:02:56.201Z,22.30
2023-05-03T15:05:24.927Z,22.00
2023-05-03T15:07:53.747Z,21.70
2023-05-03T15:10:22.501Z,21.70
2023-05-03T15:12:51.060Z,21.70
2023-05-03T15:15:21.091Z,21.80
2023-05-03T15:17:49.653Z,21.90
2023-05-03T15:20:18.346Z,22.20
2023-05-03T15:22:46.814Z,22.30
2023-05-03T15:25:15.998Z,22.20
2023-05-03T15:27:44.374Z,22.20
2023-05-03T15:30:17.291Z,22.10
2023-05-03T15:32:47.343Z,21.80
2023-05-03T15:35:16.287Z,21.60
2023-05-03T15:37:45.531Z,21.80
2023-05-03T15:40:14.483Z,22.00
2023-05-03T15:42:43.045Z,21.90
2023-05-03T15:45:13.150Z,21.90
2023-05-03T15:47:43.965Z,21.90
2023-05-03T15:50:14.176Z,21.70
2023-05-03T15:52:42.539Z,21.60
2023-05-03T15:55:11.952Z,21.60
2023-05-03T15:57:40.578Z,21.60
2023-05-03T16:00:13.776Z,21.50
2023-05-03T16:02:42.895Z,21.50
2023-05-03T16:05:13.347Z,21.50
2023-05-03T16:07:41.935Z,21.60
2023-05-03T16:10:11.481Z,21.50
2023-05-03T16:12:40.870Z,21.30
2023-05-03T16:15:12.613Z,21.20
2023-05-03T16:17:41.236Z,21.30
2023-05-03T16:20:11.709Z,21.40
2023-05-03T16:22:41.557Z,21.50
2023-05-03T16:25:11.356Z,21.40
2023-05-03T16:28:08.884Z,21.40
2023-05-03T16:30:37.920Z,21.40
2023-05-03T16:33:06.571Z,21.40
2023-05-03T16:35:35.524Z,21.60
2023-05-03T16:38:07.320Z,21.30
2023-05-03T16:40:39.477Z,21.10
2023-05-03T16:43:08.900Z,21.20
2023-05-03T16:45:37.577Z,21.30
2023-05-03T16:48:10.817Z,21.00
2023-05-03T16:50:43.941Z,20.90
2023-05-03T16:53:14.697Z,20.90
2023-05-03T16:55:43.271Z,20.70
2023-05-03T16:58:11.910Z,20.70
2023-05-03T17:00:42.371Z,20.60
2023-05-03T17:03:11.077Z,20.70
2023-05-03T17:05:39.636Z,20.90
2023-05-03T17:08:09.077Z,21.00
2023-05-03T17:10:39.529Z,20.90
2023-05-03T17:13:09.475Z,20.80
2023-05-03T17:15:39.098Z,20.70
2023-05-03T17:18:08.678Z,20.70
2023-05-03T17:20:37.937Z,20.50
2023-05-03T17:23:06.837Z,20.50
2023-05-03T17:25:35.794Z,20.60
2023-05-03T17:28:05.914Z,20.40
2023-05-03T17:30:34.903Z,20.50
2023-05-03T17:33:03.340Z,20.40
2023-05-03T17:35:31.751Z,20.50
2023-05-03T17:38:00.645Z,20.50
2023-05-03T17:40:29.020Z,20.30
2023-05-03T17:42:57.622Z,20.10
2023-05-03T17:45:29.660Z,20.10
2023-05-03T17:47:58.835Z,20.20
2023-05-03T17:50:28.331Z,20.20
2023-05-03T17:52:57.418Z,20.20
2023-05-03T17:55:26.389Z,20.20
2023-05-03T17:57:54.858Z,19.90
2023-05-03T18:00:25.469Z,19.90
2023-05-03T18:02:56.445Z,19.70
2023-05-03T18:05:24.986Z,19.80
2023-05-03T18:07:53.477Z,19.90
2023-05-03T18:10:22.449Z,20.00
2023-05-03T18:12:51.277Z,20.00
2023-05-03T18:15:20.049Z,20.00
2023-05-03T18:17:48.634Z,20.00
2023-05-03T18:20:19.520Z,20.00
2023-05-03T18:22:48.071Z,20.10
2023-05-03T18:25:17.116Z,20.20
2023-05-03T18:27:46.587Z,20.20
2023-05-03T18:30:15.534Z,20.20
2023-05-03T18:32:44.523Z,20.30
2023-05-03T18:35:13.037Z,20.40
2023-05-03T18:37:44.374Z,20.50
2023-05-03T18:40:13.638Z,20.50
2023-05-03T18:42:43.993Z,20.40
2023-05-03T18:45:17.430Z,20.20
2023-05-03T18:47:45.855Z,20.00
2023-05-03T18:50:14.442Z,20.00
2023-05-03T18:52:44.242Z,20.00
2023-05-03T18:55:14.831Z,20.00
2023-05-03T18:57:44.001Z,20.10
2023-05-03T19:00:14.013Z,19.90
2023-05-03T19:02:42.644Z,20.00
2023-05-03T19:05:12.779Z,19.90
2023-05-03T19:07:47.407Z,19.90
2023-05-03T19:10:17.435Z,19.60
2023-05-03T19:12:47.310Z,19.20
2023-05-03T19:15:16.968Z,18.80
2023-05-03T19:17:46.797Z,18.50
2023-05-03T19:20:15.612Z,18.60
2023-05-03T19:22:46.370Z,18.70
2023-05-03T19:25:15.367Z,18.50
2023-05-03T19:27:46.027Z,18.20
2023-05-03T19:30:14.916Z,18.30
2023-05-03T19:32:43.858Z,18.00
2023-05-03T19:35:13.111Z,17.70
2023-05-03T19:37:42.546Z,17.40
2023-05-03T19:40:15.617Z,17.20
2023-05-03T19:42:43.981Z,16.90
2023-05-03T19:45:14.250Z,16.70
2023-05-03T19:47:42.908Z,16.50
2023-05-03T19:50:12.216Z,16.30
2023-05-03T19:52:42.254Z,16.20
2023-05-03T19:55:11.802Z,16.50
2023-05-03T19:57:45.933Z,16.70
2023-05-03T20:00:34.628Z,16.70
2023-05-03T20:03:25.354Z,16.60
2023-05-03T20:06:14.667Z,16.50
2023-05-03T20:09:04.657Z,16.70
2023-05-03T20:11:58.704Z,16.80
2023-05-03T20:14:51.049Z,17.10
2023-05-03T20:17:39.717Z,17.10
2023-05-03T20:20:28.704Z,17.00
2023-05-03T20:23:17.529Z,17.00
2023-05-03T20:26:06.539Z,17.00
2023-05-03T20:28:55.366Z,16.90
2023-05-03T20:31:52.384Z,17.00
2023-05-03T20:34:42.680Z,16.90
2023-05-03T20:37:31.629Z,16.80
2023-05-03T20:40:20.530Z,16.90
2023-05-03T20:43:10.251Z,16.90
2023-05-03T20:46:00.207Z,16.70
2023-05-03T20:48:50.447Z,16.40
2023-05-03T20:51:39.284Z,16.30
2023-05-03T20:54:28.055Z,16.40
2023-05-03T20:57:16.862Z,16.50
2023-05-03T21:00:07.551Z,16.60
2023-05-03T21:02:56.314Z,16.80
2023-05-03T21:05:46.845Z,16.70
2023-05-03T21:08:35.869Z,16.50
2023-05-03T21:11:24.556Z,16.20
2023-05-03T21:14:14.571Z,16.00
2023-05-03T21:17:03.347Z,15.90
2023-05-03T21:19:52.945Z,15.80
2023-05-03T21:22:43.113Z,15.80
2023-05-03T21:25:31.933Z,15.80
2023-05-03T21:28:22.271Z,15.80
2023-05-03T21:31:11.372Z,15.70
2023-05-03T21:34:00.135Z,15.60
2023-05-03T21:36:48.866Z,15.60
2023-05-03T21:39:40.568Z,15.70
2023-05-03T21:42:30.201Z,15.50
2023-05-03T21:45:19.034Z,15.50
2023-05-03T21:48:07.785Z,15.40
2023-05-03T21:50:56.677Z,15.50
2023-05-03T21:53:45.361Z,15.60
2023-05-03T21:56:36.960Z,15.60
2023-05-03T21:59:25.917Z,15.60
2023-05-03T22:02:14.700Z,15.40
2023-05-03T22:05:03.573Z,15.40
2023-05-03T22:07:52.257Z,15.20
2023-05-03T22:10:41.538Z,15.20
2023-05-03T22:13:32.170Z,15.10
2023-05-03T22:16:21.029Z,15.10
2023-05-03T22:19:10.152Z,15.00
2023-05-03T22:21:59.417Z,15.20
2023-05-03T22:24:48.296Z,15.30
2023-05-03T22:27:38.102Z,15.30
2023-05-03T22:30:28.509Z,15.40
2023-05-03T22:33:17.937Z,15.50
2023-05-03T22:36:07.291Z,15.50
2023-05-03T22:39:00.880Z,15.50
2023-05-03T22:41:49.714Z,15.50
2023-05-03T22:44:38.611Z,15.40
2023-05-03T22:47:29.531Z,15.30
2023-05-03T22:50:18.418Z,15.20
2023-05-03T22:53:07.166Z,15.20
2023-05-03T22:55:57.832Z,15.20
2023-05-03T22:58:48.251Z,15.40
2023-05-03T23:01:37.595Z,15.50
2023-05-03T23:04:27.761Z,15.60
2023-05-03T23:07:16.626Z,15.70
2023-05-03T23:10:07.455Z,15.40
2023-05-03T23:12:56.569Z,15.30
2023-05-03T23:15:45.299Z,15.50
2023-05-03T23:18:34.424Z,15.60
2023-05-03T23:21:24.899Z,15.80
2023-05-03T23:24:13.694Z,15.70
2023-05-03T23:27:03.001Z,15.90
2023-05-03T23:29:52.091Z,15.90
2023-05-03T23:32:42.315Z,16.20
2023-05-03T23:35:31.772Z,16.30
2023-05-03T23:38:22.242Z,16.20
2023-05-03T23:41:11.042Z,16.20
2023-05-03T23:43:59.743Z,16.20
2023-05-03T23:46:48.553Z,16.30
2023-05-03T23:49:37.749Z,16.20
2023-05-03T23:52:26.497Z,16.10
2023-05-03T23:55:16.532Z,16.00
2023-05-03T23:58:05.231Z,16.10
